logo
Rechercher aéroport 
image banner adimage banner adimage banner ad
image banner ad

FABEUL - Beulah

Situé à , South Africa

ICAO - , IATA -

Données fournies par Airmate  

Information générale

Coordonnées: S33°54'15" E24°57'30"
Élévation : 32 feet MSL.
 
Voir autres Aéroports à Eastern Cape

Données opérationnelles

Special qualification required
Heure actuelle UTC:
Heure actuelle locale:
METAR: FAPE 251700Z 01003KT CAVOK 15/14 Q1019 NOSIG
TAF: TAF FAPE 251600Z 2518/2618 VRB02KT CAVOK TX20/2612Z TN14/2604Z BECMG 2519/2521 26008KT BECMG 2600/2602 BKN012 PROB30 TEMPO 2602/2606 26019G29KT
Voir NOTAMs / SUP AIP / TFR affectant cet aéroport [VIEW]
Fréquences de communication: [VIEW]

Pistes:

Identifiant RWYQFULongueur (ft)Largeur (ft)SurfaceLDA (ft)
0688°164066GRASS
24268°164066GRASS

Coordonnées de l'aéroport

Adresse: South Africa

Vue satellite de FABEUL